Ione, WA (99139)

4:03 AM PST on February 07, 2016 (GMT -0800)
Bodie Mountain | | Change Station
CLOSE
Current Station
Personal Weather Station
Location: Onion Creek, WA
Elevation: 3250 ft
Nearby Weather Stations

Elev 3250 ft 48.83 °N, 117.77 °W | Updated 5 minutes ago

Clear
Clear
24.5 °F
Feels Like 24 °F
N
0.0
Wind Variable Wind from ESE

Today
High -- | Low -- °F
--% Chance of Precip.
Yesterday
High -- | Low -- °F
Precip. -- in
Pressure 30.53 in
Visibility 10.0 miles
Clouds Scattered Clouds 300 ft
Windchill 24 °F
Dew Point 25 °F
Humidity 100%
Rainfall 0.00 in
Snow Depth Not available.
7:11 AM 4:56 PM
Waning Crescent, 2% visible
METAR KSZT 071155Z AUTO 00000KT 10SM SCT003 M03/M03 A3053 RMK AO2
Pressure 30.53 in
Visibility 10.0 miles
Clouds Scattered Clouds 300 ft
Windchill 24 °F
Dew Point 25 °F
Humidity 100%
Rainfall 0.00 in
Snow Depth Not available.
7:11 AM 4:56 PM
Waning Crescent, 2% visible
METAR KSZT 071155Z AUTO 00000KT 10SM SCT003 M03/M03 A3053 RMK AO2

10-Day Weather Forecast

Almanac

Astronomy

Feb. 07, 2016 Rise Set
Actual Time
Civil Twilight
Nautical Twilight
Astronomical Twilight
Moon
Length of Visible Light
Length of Day
Tomorrow will be .
, % of the Moon is Illuminated

Today's Extremes

State Highs State Lows

Community

WunderPhotos

Upload Photos

1,891,182 photos uploaded!

WunderBlog® & News

Nearby

Air Quality

  Air Quality AQ Index Pollutant
Not available.

Snow Depth

Station Depth Elevation

Earthquake Activity

City Distance Mag. Time & Date
Minimum magnitude displayed is 2.5.

Coastal Water Temperatures

Place Temperature

Stations

Nearby Weather Stations

Station Location Temp. Windchill Dew Point Humidity Wind Precip. Elev Updated Type
                   

Watches & Warnings

There are currently no watches in effect.